sensor_id;sensor_type;location;lat;lon;timestamp;pressure;altitude;pressure_sealevel;temperature;humidity
13013;BME280;22580;57.670;12.006;2023-04-04T00:00:04;102957.75;;;11.12;40.36
13013;BME280;22580;57.670;12.006;2023-04-04T00:02:34;102904.19;;;11.12;40.02
13013;BME280;22580;57.670;12.006;2023-04-04T00:05:05;102949.34;;;10.98;40.48
13013;BME280;22580;57.670;12.006;2023-04-04T00:07:34;102942.25;;;10.97;40.32
13013;BME280;22580;57.670;12.006;2023-04-04T00:10:06;102935.50;;;10.87;40.64
13013;BME280;22580;57.670;12.006;2023-04-04T00:12:35;102933.06;;;10.81;40.98
13013;BME280;22580;57.670;12.006;2023-04-04T00:15:04;102893.94;;;10.54;41.25
13013;BME280;22580;57.670;12.006;2023-04-04T00:17:33;102905.03;;;10.91;41.21
13013;BME280;22580;57.670;12.006;2023-04-04T00:20:02;102935.06;;;11.88;39.40
13013;BME280;22580;57.670;12.006;2023-04-04T00:22:35;102939.19;;;11.97;38.83
13013;BME280;22580;57.670;12.006;2023-04-04T00:25:07;102935.72;;;10.81;40.67
13013;BME280;22580;57.670;12.006;2023-04-04T00:27:54;102892.97;;;11.03;39.89
13013;BME280;22580;57.670;12.006;2023-04-04T00:30:25;102887.25;;;11.12;39.67
13013;BME280;22580;57.670;12.006;2023-04-04T00:32:53;102932.66;;;11.37;40.07
13013;BME280;22580;57.670;12.006;2023-04-04T00:35:24;102926.47;;;10.66;42.00
13013;BME280;22580;57.670;12.006;2023-04-04T00:37:57;102926.38;;;11.60;39.89
13013;BME280;22580;57.670;12.006;2023-04-04T00:40:57;102835.03;;;11.24;39.26
13013;BME280;22580;57.670;12.006;2023-04-04T00:43:34;102888.75;;;11.63;39.21
13013;BME280;22580;57.670;12.006;2023-04-04T00:46:07;102921.25;;;11.77;39.07
13013;BME280;22580;57.670;12.006;2023-04-04T00:48:44;102880.91;;;11.58;39.26
13013;BME280;22580;57.670;12.006;2023-04-04T00:51:14;102878.22;;;11.36;40.01
13013;BME280;22580;57.670;12.006;2023-04-04T00:53:45;102809.22;;;11.23;39.46
13013;BME280;22580;57.670;12.006;2023-04-04T00:56:17;102887.31;;;11.76;39.51
13013;BME280;22580;57.670;12.006;2023-04-04T00:58:48;102895.56;;;11.93;39.14
13013;BME280;22580;57.670;12.006;2023-04-04T01:01:26;102896.22;;;11.98;39.11
13013;BME280;22580;57.670;12.006;2023-04-04T01:03:56;102823.47;;;11.65;39.35
13013;BME280;22580;57.670;12.006;2023-04-04T01:06:25;102856.53;;;11.64;39.69
13013;BME280;22580;57.670;12.006;2023-04-04T01:08:55;102863.97;;;11.79;39.66
13013;BME280;22580;57.670;12.006;2023-04-04T01:11:25;102804.75;;;10.78;41.15
13013;BME280;22580;57.670;12.006;2023-04-04T01:13:55;102838.66;;;10.77;42.08
13013;BME280;22580;57.670;12.006;2023-04-04T01:16:24;102874.31;;;11.45;41.00
13013;BME280;22580;57.670;12.006;2023-04-04T01:18:53;102882.22;;;12.12;39.82
13013;BME280;22580;57.670;12.006;2023-04-04T01:21:26;102879.25;;;12.18;39.32
13013;BME280;22580;57.670;12.006;2023-04-04T01:24:04;102876.97;;;11.01;41.03
13013;BME280;22580;57.670;12.006;2023-04-04T01:26:33;102876.22;;;11.63;40.44
13013;BME280;22580;57.670;12.006;2023-04-04T01:29:03;102886.09;;;10.49;43.08
13013;BME280;22580;57.670;12.006;2023-04-04T01:31:39;102885.19;;;10.97;41.80
13013;BME280;22580;57.670;12.006;2023-04-04T01:34:15;102840.47;;;10.54;41.86
13013;BME280;22580;57.670;12.006;2023-04-04T01:36:47;102831.28;;;10.61;42.13
13013;BME280;22580;57.670;12.006;2023-04-04T01:39:27;102884.38;;;10.95;42.15
13013;BME280;22580;57.670;12.006;2023-04-04T01:42:15;102882.75;;;12.00;39.72
13013;BME280;22580;57.670;12.006;2023-04-04T01:44:44;102813.16;;;11.76;39.51
13013;BME280;22580;57.670;12.006;2023-04-04T01:47:13;102822.25;;;11.94;39.12
13013;BME280;22580;57.670;12.006;2023-04-04T01:49:47;102802.84;;;10.58;41.09
13013;BME280;22580;57.670;12.006;2023-04-04T01:52:27;102785.47;;;10.46;41.59
13013;BME280;22580;57.670;12.006;2023-04-04T01:55:06;102861.34;;;10.91;41.53
13013;BME280;22580;57.670;12.006;2023-04-04T01:57:42;102878.25;;;10.91;41.84
13013;BME280;22580;57.670;12.006;2023-04-04T02:00:15;102859.06;;;10.80;41.68
13013;BME280;22580;57.670;12.006;2023-04-04T02:02:45;102837.91;;;10.27;42.87
13013;BME280;22580;57.670;12.006;2023-04-04T02:05:14;102860.19;;;10.74;42.42
13013;BME280;22580;57.670;12.006;2023-04-04T02:07:46;102868.25;;;10.73;43.00
13013;BME280;22580;57.670;12.006;2023-04-04T02:10:16;102804.50;;;10.39;42.88
13013;BME280;22580;57.670;12.006;2023-04-04T02:12:47;102858.91;;;10.84;42.94
13013;BME280;22580;57.670;12.006;2023-04-04T02:15:25;102806.16;;;10.65;42.69
13013;BME280;22580;57.670;12.006;2023-04-04T02:17:55;102859.13;;;11.02;42.53
13013;BME280;22580;57.670;12.006;2023-04-04T02:20:25;102842.94;;;11.05;42.89
13013;BME280;22580;57.670;12.006;2023-04-04T02:22:55;102844.44;;;11.12;42.89
13013;BME280;22580;57.670;12.006;2023-04-04T02:25:24;102840.50;;;10.99;43.38
13013;BME280;22580;57.670;12.006;2023-04-04T02:27:55;102836.84;;;11.01;43.39
13013;BME280;22580;57.670;12.006;2023-04-04T02:30:24;102754.63;;;10.38;43.51
13013;BME280;22580;57.670;12.006;2023-04-04T02:32:56;102790.50;;;10.54;43.95
13013;BME280;22580;57.670;12.006;2023-04-04T02:35:34;102826.09;;;10.79;44.13
13013;BME280;22580;57.670;12.006;2023-04-04T02:38:07;102812.13;;;10.71;44.47
13013;BME280;22580;57.670;12.006;2023-04-04T02:40:44;102826.50;;;10.92;43.79
13013;BME280;22580;57.670;12.006;2023-04-04T02:43:14;102822.63;;;10.99;43.90
13013;BME280;22580;57.670;12.006;2023-04-04T02:45:46;102813.69;;;11.00;43.89
13013;BME280;22580;57.670;12.006;2023-04-04T02:48:25;102823.38;;;11.03;43.66
13013;BME280;22580;57.670;12.006;2023-04-04T02:50:56;102815.59;;;10.97;43.87
13013;BME280;22580;57.670;12.006;2023-04-04T02:53:24;102818.28;;;10.97;43.61
13013;BME280;22580;57.670;12.006;2023-04-04T02:55:54;102816.28;;;11.02;43.37
13013;BME280;22580;57.670;12.006;2023-04-04T02:58:25;102776.19;;;10.78;43.67
13013;BME280;22580;57.670;12.006;2023-04-04T03:00:55;102804.72;;;11.01;43.62
13013;BME280;22580;57.670;12.006;2023-04-04T03:03:25;102804.72;;;11.01;43.16
13013;BME280;22580;57.670;12.006;2023-04-04T03:05:54;102806.53;;;11.01;43.50
13013;BME280;22580;57.670;12.006;2023-04-04T03:08:26;102785.66;;;10.87;43.35
13013;BME280;22580;57.670;12.006;2023-04-04T03:10:54;102712.56;;;10.41;43.54
13013;BME280;22580;57.670;12.006;2023-04-04T03:13:24;102796.94;;;10.95;43.66
13013;BME280;22580;57.670;12.006;2023-04-04T03:15:57;102789.97;;;10.91;43.37
13013;BME280;22580;57.670;12.006;2023-04-04T03:18:34;102799.38;;;11.01;43.89
13013;BME280;22580;57.670;12.006;2023-04-04T03:21:07;102790.47;;;11.01;43.81
13013;BME280;22580;57.670;12.006;2023-04-04T03:23:43;102766.88;;;10.89;43.65
13013;BME280;22580;57.670;12.006;2023-04-04T03:26:15;102789.16;;;11.11;43.79
13013;BME280;22580;57.670;12.006;2023-04-04T03:28:45;102786.91;;;11.00;44.15
13013;BME280;22580;57.670;12.006;2023-04-04T03:31:13;102778.56;;;10.86;44.42
13013;BME280;22580;57.670;12.006;2023-04-04T03:33:43;102736.56;;;10.66;44.53
13013;BME280;22580;57.670;12.006;2023-04-04T03:36:12;102755.53;;;10.82;44.17
13013;BME280;22580;57.670;12.006;2023-04-04T03:38:45;102762.94;;;10.75;44.62
13013;BME280;22580;57.670;12.006;2023-04-04T03:41:15;102769.53;;;10.89;44.39
13013;BME280;22580;57.670;12.006;2023-04-04T03:43:54;102748.88;;;10.70;44.72
13013;BME280;22580;57.670;12.006;2023-04-04T03:46:25;102726.84;;;10.64;44.69
13013;BME280;22580;57.670;12.006;2023-04-04T03:48:56;102762.19;;;10.94;44.90
13013;BME280;22580;57.670;12.006;2023-04-04T03:51:23;102774.66;;;10.95;44.81
13013;BME280;22580;57.670;12.006;2023-04-04T03:53:54;102768.06;;;11.03;44.66
13013;BME280;22580;57.670;12.006;2023-04-04T03:56:23;102750.81;;;10.89;44.86
13013;BME280;22580;57.670;12.006;2023-04-04T03:58:54;102764.56;;;11.01;44.93
13013;BME280;22580;57.670;12.006;2023-04-04T04:01:24;102767.25;;;10.34;46.32
13013;BME280;22580;57.670;12.006;2023-04-04T04:03:51;102765.28;;;10.61;45.92
13013;BME280;22580;57.670;12.006;2023-04-04T04:06:19;102758.25;;;10.59;46.00
13013;BME280;22580;57.670;12.006;2023-04-04T04:08:52;102741.84;;;10.68;45.63
13013;BME280;22580;57.670;12.006;2023-04-04T04:11:24;102668.84;;;11.08;44.42
13013;BME280;22580;57.670;12.006;2023-04-04T04:13:54;102755.91;;;10.95;45.41
13013;BME280;22580;57.670;12.006;2023-04-04T04:16:24;102718.25;;;10.77;45.47
13013;BME280;22580;57.670;12.006;2023-04-04T04:18:52;102738.19;;;10.92;45.26
13013;BME280;22580;57.670;12.006;2023-04-04T04:21:24;102756.09;;;11.12;45.02
13013;BME280;22580;57.670;12.006;2023-04-04T04:23:51;102746.06;;;11.17;45.11
13013;BME280;22580;57.670;12.006;2023-04-04T04:26:26;102755.16;;;11.13;45.34
13013;BME280;22580;57.670;12.006;2023-04-04T04:28:54;102745.34;;;11.13;45.24
13013;BME280;22580;57.670;12.006;2023-04-04T04:31:26;102745.59;;;11.07;45.78
13013;BME280;22580;57.670;12.006;2023-04-04T04:33:53;102745.66;;;11.06;45.85
13013;BME280;22580;57.670;12.006;2023-04-04T04:36:26;102743.94;;;11.25;45.51
13013;BME280;22580;57.670;12.006;2023-04-04T04:38:53;102706.50;;;11.03;45.80
13013;BME280;22580;57.670;12.006;2023-04-04T04:41:26;102679.56;;;10.86;45.89
13013;BME280;22580;57.670;12.006;2023-04-04T04:44:05;102733.38;;;11.00;46.25
13013;BME280;22580;57.670;12.006;2023-04-04T04:46:35;102684.44;;;10.76;46.69
13013;BME280;22580;57.670;12.006;2023-04-04T04:49:02;102753.50;;;11.10;46.81
13013;BME280;22580;57.670;12.006;2023-04-04T04:51:34;102750.81;;;11.10;47.03
13013;BME280;22580;57.670;12.006;2023-04-04T04:54:04;102669.81;;;10.63;47.13
13013;BME280;22580;57.670;12.006;2023-04-04T04:56:34;102698.41;;;10.83;47.76
13013;BME280;22580;57.670;12.006;2023-04-04T04:59:16;102734.69;;;10.90;48.02
13013;BME280;22580;57.670;12.006;2023-04-04T05:01:45;102743.84;;;11.06;48.16
13013;BME280;22580;57.670;12.006;2023-04-04T05:04:24;102637.09;;;10.57;47.86
13013;BME280;22580;57.670;12.006;2023-04-04T05:06:57;102736.06;;;12.22;45.74
13013;BME280;22580;57.670;12.006;2023-04-04T05:09:36;102699.16;;;12.27;45.13
13013;BME280;22580;57.670;12.006;2023-04-04T05:12:06;102738.59;;;12.63;44.53
13013;BME280;22580;57.670;12.006;2023-04-04T05:14:43;102725.34;;;12.60;44.51
13013;BME280;22580;57.670;12.006;2023-04-04T05:17:13;102725.72;;;12.52;44.89
13013;BME280;22580;57.670;12.006;2023-04-04T05:19:43;102743.63;;;12.52;45.14
13013;BME280;22580;57.670;12.006;2023-04-04T05:22:16;102675.97;;;12.26;45.18
13013;BME280;22580;57.670;12.006;2023-04-04T05:24:43;102743.28;;;11.61;47.61
13013;BME280;22580;57.670;12.006;2023-04-04T05:27:15;102715.19;;;12.29;46.24
13013;BME280;22580;57.670;12.006;2023-04-04T05:29:43;102738.88;;;12.19;46.58
13013;BME280;22580;57.670;12.006;2023-04-04T05:32:15;102740.06;;;12.70;45.63
13013;BME280;22580;57.670;12.006;2023-04-04T05:34:45;102742.88;;;12.67;45.69
13013;BME280;22580;57.670;12.006;2023-04-04T05:37:12;102717.31;;;10.35;49.92
13013;BME280;22580;57.670;12.006;2023-04-04T05:39:44;102729.25;;;12.15;47.05
13013;BME280;22580;57.670;12.006;2023-04-04T05:42:13;102714.09;;;12.14;46.82
13013;BME280;22580;57.670;12.006;2023-04-04T05:44:45;102714.81;;;12.18;46.59
13013;BME280;22580;57.670;12.006;2023-04-04T05:47:14;102720.31;;;12.14;46.65
13013;BME280;22580;57.670;12.006;2023-04-04T05:49:44;102724.41;;;12.04;49.73
13013;BME280;22580;57.670;12.006;2023-04-04T05:52:14;102723.88;;;11.96;50.79
13013;BME280;22580;57.670;12.006;2023-04-04T05:54:47;102695.19;;;12.36;50.00
13013;BME280;22580;57.670;12.006;2023-04-04T05:57:26;102731.47;;;11.87;50.03
13013;BME280;22580;57.670;12.006;2023-04-04T05:59:54;102738.09;;;11.15;51.29
13013;BME280;22580;57.670;12.006;2023-04-04T06:02:24;102677.25;;;11.39;50.17
13013;BME280;22580;57.670;12.006;2023-04-04T06:04:57;102675.50;;;11.99;48.28
13013;BME280;22580;57.670;12.006;2023-04-04T06:07:44;102734.25;;;12.41;47.66
13013;BME280;22580;57.670;12.006;2023-04-04T06:10:16;102700.13;;;12.26;47.50
13013;BME280;22580;57.670;12.006;2023-04-04T06:12:45;102682.16;;;12.09;47.62
13013;BME280;22580;57.670;12.006;2023-04-04T06:15:16;102720.13;;;12.38;47.94
13013;BME280;22580;57.670;12.006;2023-04-04T06:17:43;102728.97;;;10.77;49.95
13013;BME280;22580;57.670;12.006;2023-04-04T06:20:10;102719.72;;;11.48;50.38
13013;BME280;22580;57.670;12.006;2023-04-04T06:22:39;102724.59;;;11.59;50.65
13013;BME280;22580;57.670;12.006;2023-04-04T06:25:06;102719.84;;;12.44;48.77
13013;BME280;22580;57.670;12.006;2023-04-04T06:27:42;102713.72;;;12.78;48.11
13013;BME280;22580;57.670;12.006;2023-04-04T06:30:16;102710.56;;;13.40;46.64
13013;BME280;22580;57.670;12.006;2023-04-04T06:32:45;102720.44;;;13.57;45.90
13013;BME280;22580;57.670;12.006;2023-04-04T06:35:14;102717.28;;;12.41;48.36
13013;BME280;22580;57.670;12.006;2023-04-04T06:37:43;102713.75;;;12.03;50.07
13013;BME280;22580;57.670;12.006;2023-04-04T06:40:15;102718.59;;;12.13;49.94
13013;BME280;22580;57.670;12.006;2023-04-04T06:42:47;102718.59;;;12.13;49.98
13013;BME280;22580;57.670;12.006;2023-04-04T06:45:27;102721.44;;;12.10;50.05
13013;BME280;22580;57.670;12.006;2023-04-04T06:48:04;102675.38;;;12.93;47.68
13013;BME280;22580;57.670;12.006;2023-04-04T06:50:32;102711.84;;;13.33;47.21
13013;BME280;22580;57.670;12.006;2023-04-04T06:53:05;102698.50;;;12.60;48.45
13013;BME280;22580;57.670;12.006;2023-04-04T06:55:35;102701.47;;;12.16;49.85
13013;BME280;22580;57.670;12.006;2023-04-04T06:58:02;102690.19;;;12.09;50.02
13013;BME280;22580;57.670;12.006;2023-04-04T07:00:34;102702.13;;;12.21;50.07
13013;BME280;22580;57.670;12.006;2023-04-04T07:03:01;102714.69;;;12.21;50.27
13013;BME280;22580;57.670;12.006;2023-04-04T07:05:36;102673.00;;;12.13;50.17
13013;BME280;22580;57.670;12.006;2023-04-04T07:08:04;102657.31;;;12.06;50.44
13013;BME280;22580;57.670;12.006;2023-04-04T07:10:37;102668.94;;;12.24;50.28
13013;BME280;22580;57.670;12.006;2023-04-04T07:13:14;102705.53;;;12.25;51.05
13013;BME280;22580;57.670;12.006;2023-04-04T07:15:47;102625.72;;;11.94;50.95
13013;BME280;22580;57.670;12.006;2023-04-04T07:18:25;102692.28;;;12.40;50.97
13013;BME280;22580;57.670;12.006;2023-04-04T07:20:54;102698.47;;;12.05;51.68
13013;BME280;22580;57.670;12.006;2023-04-04T07:23:23;102681.31;;;13.52;48.30
13013;BME280;22580;57.670;12.006;2023-04-04T07:25:53;102686.34;;;12.89;49.94
13013;BME280;22580;57.670;12.006;2023-04-04T07:28:25;102649.16;;;13.50;49.56
13013;BME280;22580;57.670;12.006;2023-04-04T07:30:54;102690.69;;;14.26;47.83
13013;BME280;22580;57.670;12.006;2023-04-04T07:33:26;102691.13;;;14.34;46.33
13013;BME280;22580;57.670;12.006;2023-04-04T07:35:56;102684.22;;;14.62;45.48
13013;BME280;22580;57.670;12.006;2023-04-04T07:38:24;102687.34;;;14.70;44.81
13013;BME280;22580;57.670;12.006;2023-04-04T07:40:55;102660.84;;;13.49;48.34
13013;BME280;22580;57.670;12.006;2023-04-04T07:43:24;102690.34;;;14.32;48.07
13013;BME280;22580;57.670;12.006;2023-04-04T07:45:54;102672.78;;;14.88;45.32
13013;BME280;22580;57.670;12.006;2023-04-04T07:48:25;102689.47;;;14.79;45.14
13013;BME280;22580;57.670;12.006;2023-04-04T07:50:55;102654.69;;;14.60;45.37
13013;BME280;22580;57.670;12.006;2023-04-04T07:53:23;102685.44;;;14.72;45.54
13013;BME280;22580;57.670;12.006;2023-04-04T07:56:05;102685.44;;;14.72;45.78
13013;BME280;22580;57.670;12.006;2023-04-04T07:58:35;102668.34;;;14.57;45.79
13013;BME280;22580;57.670;12.006;2023-04-04T08:01:05;102683.63;;;14.57;46.34
13013;BME280;22580;57.670;12.006;2023-04-04T08:03:34;102681.16;;;14.36;46.55
13013;BME280;22580;57.670;12.006;2023-04-04T08:06:03;102650.09;;;14.47;46.30
13013;BME280;22580;57.670;12.006;2023-04-04T08:08:45;102626.69;;;14.79;45.29
13013;BME280;22580;57.670;12.006;2023-04-04T08:11:15;102634.38;;;14.70;45.51
13013;BME280;22580;57.670;12.006;2023-04-04T08:13:43;102656.31;;;15.08;45.22
13013;BME280;22580;57.670;12.006;2023-04-04T08:16:15;102661.47;;;14.97;45.48
13013;BME280;22580;57.670;12.006;2023-04-04T08:18:44;102635.91;;;14.74;45.45
13013;BME280;22580;57.670;12.006;2023-04-04T08:21:14;102676.47;;;15.17;45.46
13013;BME280;22580;57.670;12.006;2023-04-04T08:23:44;102666.41;;;15.35;44.86
13013;BME280;22580;57.670;12.006;2023-04-04T08:26:13;102672.28;;;15.41;44.80
13013;BME280;22580;57.670;12.006;2023-04-04T08:28:47;102672.59;;;15.51;44.42
13013;BME280;22580;57.670;12.006;2023-04-04T08:31:17;102625.50;;;15.43;45.52
13013;BME280;22580;57.670;12.006;2023-04-04T08:33:44;102636.03;;;15.61;48.24
13013;BME280;22580;57.670;12.006;2023-04-04T08:36:13;102657.78;;;16.15;46.43
13013;BME280;22580;57.670;12.006;2023-04-04T08:38:42;102665.47;;;16.35;47.05
13013;BME280;22580;57.670;12.006;2023-04-04T08:41:20;102664.13;;;16.96;45.54
13013;BME280;22580;57.670;12.006;2023-04-04T08:43:56;102660.41;;;17.24;44.13
13013;BME280;22580;57.670;12.006;2023-04-04T08:46:34;102665.59;;;16.47;44.64
13013;BME280;22580;57.670;12.006;2023-04-04T08:49:03;102670.22;;;15.89;45.23
13013;BME280;22580;57.670;12.006;2023-04-04T08:51:34;102663.47;;;15.68;45.44
13013;BME280;22580;57.670;12.006;2023-04-04T08:54:04;102664.41;;;15.53;45.82
13013;BME280;22580;57.670;12.006;2023-04-04T08:56:34;102651.25;;;17.00;42.88
13013;BME280;22580;57.670;12.006;2023-04-04T08:59:07;102632.56;;;16.02;44.61
13013;BME280;22580;57.670;12.006;2023-04-04T09:01:37;102658.16;;;15.52;46.44
13013;BME280;22580;57.670;12.006;2023-04-04T09:04:07;102651.13;;;15.50;46.06
13013;BME280;22580;57.670;12.006;2023-04-04T09:06:54;102659.53;;;15.73;46.49
13013;BME280;22580;57.670;12.006;2023-04-04T09:09:27;102654.31;;;15.85;46.46
13013;BME280;22580;57.670;12.006;2023-04-04T09:12:04;102660.97;;;15.79;46.99
13013;BME280;22580;57.670;12.006;2023-04-04T09:14:36;102648.16;;;16.11;46.03
13013;BME280;22580;57.670;12.006;2023-04-04T09:17:15;102587.09;;;15.67;46.59
13013;BME280;22580;57.670;12.006;2023-04-04T09:19:44;102654.19;;;16.70;44.32
13013;BME280;22580;57.670;12.006;2023-04-04T09:22:15;102644.06;;;16.32;45.51
13013;BME280;22580;57.670;12.006;2023-04-04T09:24:44;102648.44;;;17.66;42.51
13013;BME280;22580;57.670;12.006;2023-04-04T09:27:15;102650.69;;;17.98;41.23
13013;BME280;22580;57.670;12.006;2023-04-04T09:29:44;102648.22;;;17.69;41.81
13013;BME280;22580;57.670;12.006;2023-04-04T09:32:23;102608.91;;;17.89;40.51
13013;BME280;22580;57.670;12.006;2023-04-04T09:34:55;102637.34;;;18.08;40.38
13013;BME280;22580;57.670;12.006;2023-04-04T09:37:26;102632.69;;;17.08;41.49
13013;BME280;22580;57.670;12.006;2023-04-04T09:40:06;102638.56;;;18.04;40.13
13013;BME280;22580;57.670;12.006;2023-04-04T09:42:45;102636.06;;;17.50;41.55
13013;BME280;22580;57.670;12.006;2023-04-04T09:45:14;102630.44;;;17.91;39.90
13013;BME280;22580;57.670;12.006;2023-04-04T09:47:46;102584.28;;;17.30;39.98
13013;BME280;22580;57.670;12.006;2023-04-04T09:50:26;102625.56;;;18.09;40.77
13013;BME280;22580;57.670;12.006;2023-04-04T09:52:56;102628.47;;;17.04;43.01
13013;BME280;22580;57.670;12.006;2023-04-04T09:55:54;102619.06;;;18.11;42.92
13013;BME280;22580;57.670;12.006;2023-04-04T09:58:25;102633.34;;;18.74;41.67
13013;BME280;22580;57.670;12.006;2023-04-04T10:00:58;102624.56;;;18.70;39.92
13013;BME280;22580;57.670;12.006;2023-04-04T10:03:35;102630.50;;;18.75;39.26
13013;BME280;22580;57.670;12.006;2023-04-04T10:06:04;102633.34;;;18.74;38.86
13013;BME280;22580;57.670;12.006;2023-04-04T10:08:38;102625.66;;;18.91;39.38
13013;BME280;22580;57.670;12.006;2023-04-04T10:11:08;102627.78;;;19.10;39.27
13013;BME280;22580;57.670;12.006;2023-04-04T10:13:37;102598.34;;;19.06;38.96
13013;BME280;22580;57.670;12.006;2023-04-04T10:16:17;102546.00;;;19.05;37.47
13013;BME280;22580;57.670;12.006;2023-04-04T10:18:57;102554.72;;;18.97;35.33
13013;BME280;22580;57.670;12.006;2023-04-04T10:21:34;102575.16;;;18.43;36.79
13013;BME280;22580;57.670;12.006;2023-04-04T10:24:05;102616.50;;;18.21;35.90
13013;BME280;22580;57.670;12.006;2023-04-04T10:26:58;102596.47;;;18.23;35.90
13013;BME280;22580;57.670;12.006;2023-04-04T10:29:36;102616.69;;;18.67;37.13
13013;BME280;22580;57.670;12.006;2023-04-04T10:32:08;102601.38;;;18.90;35.84
13013;BME280;22580;57.670;12.006;2023-04-04T10:34:55;102608.16;;;18.24;36.85
13013;BME280;22580;57.670;12.006;2023-04-04T10:37:34;102564.78;;;18.84;37.14
13013;BME280;22580;57.670;12.006;2023-04-04T10:40:08;102601.78;;;19.54;34.99
13013;BME280;22580;57.670;12.006;2023-04-04T10:42:45;102559.41;;;18.95;34.23
13013;BME280;22580;57.670;12.006;2023-04-04T10:45:16;102603.00;;;18.45;34.13
13013;BME280;22580;57.670;12.006;2023-04-04T10:47:46;102561.13;;;18.61;34.50
13013;BME280;22580;57.670;12.006;2023-04-04T10:50:14;102604.19;;;17.29;35.34
13013;BME280;22580;57.670;12.006;2023-04-04T10:52:44;102602.78;;;18.72;34.68
13013;BME280;22580;57.670;12.006;2023-04-04T10:55:14;102593.75;;;17.99;34.61
13013;BME280;22580;57.670;12.006;2023-04-04T10:57:45;102597.13;;;18.75;34.36
13013;BME280;22580;57.670;12.006;2023-04-04T11:00:24;102593.59;;;18.85;33.31
13013;BME280;22580;57.670;12.006;2023-04-04T11:02:55;102583.47;;;19.33;31.40
13013;BME280;22580;57.670;12.006;2023-04-04T11:05:30;102574.28;;;19.70;30.66
13013;BME280;22580;57.670;12.006;2023-04-04T11:08:06;102582.38;;;20.03;29.65
13013;BME280;22580;57.670;12.006;2023-04-04T11:10:37;102580.56;;;19.70;27.70
13013;BME280;22580;57.670;12.006;2023-04-04T11:13:26;102562.53;;;19.36;27.06
13013;BME280;22580;57.670;12.006;2023-04-04T11:16:06;102531.56;;;19.27;27.71
13013;BME280;22580;57.670;12.006;2023-04-04T11:18:58;102574.28;;;19.92;27.02
13013;BME280;22580;57.670;12.006;2023-04-04T11:21:45;102573.06;;;19.51;25.44
13013;BME280;22580;57.670;12.006;2023-04-04T11:24:14;102564.16;;;19.72;24.81
13013;BME280;22580;57.670;12.006;2023-04-04T11:26:45;102573.53;;;20.33;24.38
13013;BME280;22580;57.670;12.006;2023-04-04T11:29:56;102551.81;;;20.44;24.40
13013;BME280;22580;57.670;12.006;2023-04-04T11:32:37;102561.69;;;20.34;24.09
13013;BME280;22580;57.670;12.006;2023-04-04T11:35:36;102536.75;;;20.40;24.24
13013;BME280;22580;57.670;12.006;2023-04-04T11:38:14;102564.66;;;19.88;24.55
13013;BME280;22580;57.670;12.006;2023-04-04T11:40:54;102490.16;;;19.03;25.77
13013;BME280;22580;57.670;12.006;2023-04-04T11:43:25;102517.09;;;17.99;26.59
13013;BME280;22580;57.670;12.006;2023-04-04T11:46:05;102471.91;;;18.12;27.20
13013;BME280;22580;57.670;12.006;2023-04-04T11:48:35;102562.84;;;16.23;27.91
13013;BME280;22580;57.670;12.006;2023-04-04T11:51:04;102533.16;;;17.27;27.26
13013;BME280;22580;57.670;12.006;2023-04-04T11:53:36;102553.97;;;17.38;27.39
13013;BME280;22580;57.670;12.006;2023-04-04T11:56:14;102550.56;;;18.70;26.18
13013;BME280;22580;57.670;12.006;2023-04-04T11:58:46;102536.19;;;18.80;26.48
13013;BME280;22580;57.670;12.006;2023-04-04T12:01:13;102540.91;;;19.12;26.49
13013;BME280;22580;57.670;12.006;2023-04-04T12:03:47;102542.31;;;18.71;25.96
13013;BME280;22580;57.670;12.006;2023-04-04T12:06:25;102548.53;;;19.07;26.67
13013;BME280;22580;57.670;12.006;2023-04-04T12:09:05;102548.25;;;19.67;26.16
13013;BME280;22580;57.670;12.006;2023-04-04T12:11:35;102538.56;;;19.07;26.05
13013;BME280;22580;57.670;12.006;2023-04-04T12:14:14;102489.75;;;18.50;25.62
13013;BME280;22580;57.670;12.006;2023-04-04T12:16:46;102538.94;;;20.03;25.04
13013;BME280;22580;57.670;12.006;2023-04-04T12:19:16;102533.16;;;19.96;24.45
13013;BME280;22580;57.670;12.006;2023-04-04T12:21:46;102474.34;;;19.86;24.51
13013;BME280;22580;57.670;12.006;2023-04-04T12:24:15;102527.03;;;20.26;24.64
13013;BME280;22580;57.670;12.006;2023-04-04T12:26:48;102530.22;;;20.32;24.84
13013;BME280;22580;57.670;12.006;2023-04-04T12:29:35;102497.91;;;20.17;24.58
13013;BME280;22580;57.670;12.006;2023-04-04T12:32:08;102515.91;;;20.61;25.47
13013;BME280;22580;57.670;12.006;2023-04-04T12:34:46;102517.69;;;21.35;23.95
13013;BME280;22580;57.670;12.006;2023-04-04T12:37:16;102506.34;;;21.79;23.49
13013;BME280;22580;57.670;12.006;2023-04-04T12:39:48;102463.59;;;21.51;23.18
13013;BME280;22580;57.670;12.006;2023-04-04T12:42:25;102500.50;;;21.34;21.52
13013;BME280;22580;57.670;12.006;2023-04-04T12:44:56;102496.22;;;21.41;22.81
13013;BME280;22580;57.670;12.006;2023-04-04T12:47:25;102498.31;;;21.68;23.52
13013;BME280;22580;57.670;12.006;2023-04-04T12:49:56;102499.31;;;21.67;21.99
13013;BME280;22580;57.670;12.006;2023-04-04T12:52:26;102490.13;;;21.58;22.55
13013;BME280;22580;57.670;12.006;2023-04-04T12:54:57;102464.69;;;21.88;22.82
13013;BME280;22580;57.670;12.006;2023-04-04T12:57:37;102486.75;;;21.95;22.68
13013;BME280;22580;57.670;12.006;2023-04-04T13:00:14;102427.94;;;21.44;23.20
13013;BME280;22580;57.670;12.006;2023-04-04T13:02:48;102488.56;;;21.75;23.20
13013;BME280;22580;57.670;12.006;2023-04-04T13:05:31;102500.47;;;21.65;23.34
13013;BME280;22580;57.670;12.006;2023-04-04T13:08:15;102488.13;;;21.61;23.59